KESF

Esler Regional Airport

Alexandria, Louisiana, USA
METAR KESF 210353Z AUTO 00000KT 10SM CLR 28/24 A3001 RMK AO2 LTG DSNT N SLP160 T02780239
Observed Flight Rules
Aug-21 @ 03:53 UTC (19 minutes ago) Visual Flight Rules
Visibility Clouds
10 miles
  • Clear skies
Temperatures Readings
Current 28°C / 82°F
Dewpoint 24°C / 75°F
Humidity 79%
Altimeter 30.01" Hg
Pressure 1016 hPa
Elevation 28
METAR KESF 210353Z AUTO 00000KT 10SM CLR 28/24 A3001 RMK AO2 LTG DSNT N SLP160 T02780239
Observed Flight Rules
Aug-21 @ 03:53 UTC
(19 minutes ago)
VFR
Clouds
  • Clear skies
Temperature Dewpoint
28°C / 82°F 24°C / 75°F
Humidity Altimeter Pressure
79% 30.01" Hg 1016 hPa